KSNK

Winston Field Airport

Snyder, Texas, USA
METAR KSNK 151535Z AUTO 00000KT 10SM CLR 03/M04 A3028 RMK AO2 T00311039
Observed Flight Rules
Dec-15 @ 15:35 UTC (30 minutes ago) Visual Flight Rules
Visibility Clouds
10 miles
  • Clear skies
Temperatures Readings
Current 3°C / 37°F
Dewpoint -4°C / 25°F
Humidity 60%
Altimeter 30.28" Hg
Pressure 1025 hPa
Elevation 741
METAR KSNK 151535Z AUTO 00000KT 10SM CLR 03/M04 A3028 RMK AO2 T00311039
Observed Flight Rules
Dec-15 @ 15:35 UTC
(30 minutes ago)
VFR
Clouds
  • Clear skies
Temperature Dewpoint
3°C / 37°F -4°C / 25°F
Humidity Altimeter Pressure
60% 30.28" Hg 1025 hPa